Accueil
METAR-TAF:

Aéroports :

Bauru, São Paulo, Brésil

latitude: 22-19S, longitude: 049-04W, altitude: 590 m

Observation

Le bulletin a été fait il y a 24 minutes, à 04:00 UTC
Vent 4 kt de est
Température 20°C
Humidité 88%
Pression 1019 hPa
Visibilité 10 km ou plus
pas de nuages en-dessous de 1500 mètres et pas de cumulonimbus.

METAR: SBBU 270400Z 10004KT CAVOK 20/18 Q1019

Heure: 01:24 (04:24 UTC)

Prévision

Le bulletin a été fait il y a 7 heures et 24 minutes, à 21:00 UTC
Prévision valable du 27 à 00 UTC au 27 à 12 UTC
Vent 7 kt de est/sud-est
Visibilité 10 km ou plus
pas de nuages en-dessous de 1500 mètres et pas de cumulonimbus.

TAF: SBBU 262100Z 2700/2712 11007KT CAVOK TX20/2700Z TN17/2708Z RMK PDJ

METAR-TAF

Observations et prévisions météorologiques de plus de 4000 aéroports (messages METAR et TAF).

Les stations disponibles sont représentées par des disques jaunes et rouges sur la carte.

Passer la souris dessus pour voir le nom de la station.

Cliquer dessus pour voir les observations et prévisions météorologiques.

Pour changer de carte: cliquez sur les boutons verts avec une croix noire pour zoomer, sur le bouton vert avec un tiret pour effectuer un zoom arrière, ou sur les flèches vertes pour les cartes adjacentes.


METAR-TAF: